Time;durP1;ratioP1;P1;durP2;ratioP2;P2;SDS_P1;SDS_P2;PMS_P1;PMS_P2;Temp;Humidity;BMP_temperature;BMP_pressure;BME280_temperature;BME280_humidity;BME280_pressure;Samples;Min_cycle;Max_cycle;Signal;HPM_P1;HPM_P2
2022/09/27 00:01:34;;;;;;;0.80;0.80;;;10.70;99.90;;;;;;4992671;28;20201;-76
2022/09/27 00:04:01;;;;;;;0.88;0.68;;;10.60;99.90;;;;;;4991304;28;20283;-77
2022/09/27 00:06:30;;;;;;;0.50;0.40;;;10.60;99.90;;;;;;4992635;28;20287;-76
2022/09/27 00:08:58;;;;;;;0.63;0.63;;;10.50;99.90;;;;;;4992169;28;20209;-76
2022/09/27 00:11:28;;;;;;;0.50;0.40;;;10.50;99.90;;;;;;4992272;28;20290;-76
2022/09/27 00:13:57;;;;;;;0.50;0.40;;;10.50;99.90;;;;;;4991497;28;20226;-75
2022/09/27 00:16:26;;;;;;;0.50;0.40;;;10.40;99.90;;;;;;4992313;28;20283;-76
2022/09/27 00:18:53;;;;;;;2.63;1.15;;;10.40;99.90;;;;;;4991972;28;20630;-77
2022/09/27 00:21:20;;;;;;;0.50;0.40;;;10.40;99.90;;;;;;4992205;28;20298;-75
2022/09/27 00:23:47;;;;;;;0.50;0.40;;;10.30;99.90;;;;;;4991866;28;20257;-76
2022/09/27 00:26:14;;;;;;;0.50;0.40;;;10.30;99.90;;;;;;4991429;28;20237;-76
2022/09/27 00:28:42;;;;;;;0.50;0.40;;;10.30;99.90;;;;;;4992031;28;20284;-76
2022/09/27 00:31:19;;;;;;;0.80;0.77;;;10.30;99.90;;;;;;4991757;28;20744;-76
2022/09/27 00:33:46;;;;;;;0.50;0.40;;;10.20;99.90;;;;;;4991781;28;20231;-77
2022/09/27 00:36:13;;;;;;;0.50;0.40;;;10.20;99.90;;;;;;4991777;28;20304;-78
2022/09/27 00:38:41;;;;;;;0.50;0.40;;;10.20;99.90;;;;;;4991962;28;20198;-76
2022/09/27 00:41:13;;;;;;;0.50;0.40;;;10.30;99.90;;;;;;4992254;28;20303;-76
2022/09/27 00:43:46;;;;;;;0.50;0.50;;;10.30;99.90;;;;;;4991976;28;20230;-76
2022/09/27 00:46:19;;;;;;;0.50;0.40;;;10.30;99.90;;;;;;4991785;28;20728;-74
2022/09/27 00:48:47;;;;;;;0.50;0.40;;;10.30;99.90;;;;;;4991400;28;20276;-76
2022/09/27 00:51:15;;;;;;;0.55;0.55;;;10.30;99.90;;;;;;4992022;28;20607;-77
2022/09/27 00:53:45;;;;;;;0.60;0.57;;;10.40;99.90;;;;;;4992740;28;20215;-75
2022/09/27 00:56:17;;;;;;;0.60;0.60;;;10.40;99.90;;;;;;4991590;28;20724;-72
2022/09/27 00:58:48;;;;;;;0.50;0.40;;;10.30;99.90;;;;;;4991409;28;20763;-75
2022/09/27 01:01:17;;;;;;;0.50;0.40;;;10.40;99.90;;;;;;4992067;28;20220;-75
2022/09/27 01:03:49;;;;;;;0.50;0.40;;;10.40;99.90;;;;;;4991208;28;20796;-75
2022/09/27 01:06:18;;;;;;;0.50;0.40;;;10.40;99.90;;;;;;4991510;28;20281;-75
2022/09/27 01:08:45;;;;;;;1.58;1.48;;;10.40;99.90;;;;;;4991776;28;20298;-75
2022/09/27 01:11:19;;;;;;;0.95;0.95;;;10.40;99.90;;;;;;4991637;28;20302;-75
2022/09/27 01:14:02;;;;;;;0.50;0.50;;;10.40;99.90;;;;;;4991581;28;20313;-75
2022/09/27 01:16:38;;;;;;;1.20;1.20;;;10.40;99.90;;;;;;4991522;28;20318;-76
2022/09/27 01:19:16;;;;;;;1.00;1.00;;;10.40;99.90;;;;;;4991571;28;20665;-75
2022/09/27 01:21:50;;;;;;;0.90;0.90;;;10.40;99.90;;;;;;4991392;28;20275;-76
2022/09/27 01:24:49;;;;;;;6.20;3.38;;;10.30;99.90;;;;;;4991067;28;20305;-75
2022/09/27 01:27:41;;;;;;;1.73;1.58;;;10.30;99.90;;;;;;4991263;28;20286;-73
2022/09/27 01:30:25;;;;;;;6.18;1.98;;;10.20;99.90;;;;;;4990973;28;20291;-75
2022/09/27 01:33:03;;;;;;;0.50;0.50;;;10.20;99.90;;;;;;4991681;28;20272;-76
2022/09/27 01:35:38;;;;;;;1.75;1.55;;;10.30;99.90;;;;;;4991271;28;20318;-75
2022/09/27 01:38:15;;;;;;;46.10;7.55;;;10.30;99.90;;;;;;4991123;28;20233;-75
2022/09/27 01:40:49;;;;;;;1.45;1.20;;;10.30;99.90;;;;;;4994900;28;20295;-75
2022/09/27 01:43:21;;;;;;;2.40;2.20;;;10.30;99.90;;;;;;4995120;28;20693;-75
2022/09/27 01:45:54;;;;;;;1.98;1.30;;;10.30;99.90;;;;;;4994535;28;20631;-75
2022/09/27 01:48:23;;;;;;;0.50;0.40;;;10.30;99.90;;;;;;4994963;28;20644;-75
2022/09/27 01:50:55;;;;;;;0.50;0.40;;;10.30;99.90;;;;;;4994735;28;20203;-76
2022/09/27 01:53:25;;;;;;;1.10;1.02;;;10.30;99.90;;;;;;4994866;28;20267;-75
2022/09/27 01:55:55;;;;;;;0.50;0.40;;;10.30;99.90;;;;;;4994232;28;20311;-75
2022/09/27 01:58:26;;;;;;;1.02;0.93;;;10.30;99.90;;;;;;4994757;28;20291;-75
2022/09/27 02:00:56;;;;;;;0.77;0.77;;;10.30;99.90;;;;;;4994623;28;21000;-76
2022/09/27 02:03:26;;;;;;;0.63;0.63;;;10.30;99.90;;;;;;4994135;28;20669;-75
2022/09/27 02:05:57;;;;;;;1.10;0.70;;;10.30;99.90;;;;;;4994095;28;20288;-75
2022/09/27 02:08:31;;;;;;;2.45;2.35;;;10.30;99.90;;;;;;4994473;28;20201;-75
2022/09/27 02:11:02;;;;;;;0.50;0.40;;;10.30;99.90;;;;;;4994540;28;20197;-76
2022/09/27 02:13:37;;;;;;;0.50;0.40;;;10.30;99.90;;;;;;4994594;28;20323;-75
2022/09/27 02:16:15;;;;;;;0.50;0.40;;;10.30;99.90;;;;;;4993642;28;20689;-76
2022/09/27 02:18:53;;;;;;;0.50;0.40;;;10.30;99.90;;;;;;4994405;28;20291;-75
2022/09/27 02:21:22;;;;;;;2.92;2.72;;;10.30;99.90;;;;;;4994472;28;20594;-75
2022/09/27 02:23:56;;;;;;;0.50;0.40;;;10.30;99.90;;;;;;4994042;28;20310;-75
2022/09/27 02:26:27;;;;;;;0.50;0.40;;;10.30;99.90;;;;;;4993735;28;20200;-75
2022/09/27 02:29:01;;;;;;;0.73;0.73;;;10.20;99.90;;;;;;4994213;28;20306;-75
2022/09/27 02:31:29;;;;;;;4.65;4.30;;;10.20;99.90;;;;;;4993445;28;20626;-75
2022/09/27 02:34:00;;;;;;;7.63;0.88;;;10.20;99.90;;;;;;4993307;28;20311;-75
2022/09/27 02:36:28;;;;;;;4.05;3.70;;;10.20;99.90;;;;;;4993815;28;20307;-76
2022/09/27 02:38:55;;;;;;;1.05;0.50;;;10.20;99.90;;;;;;4993873;28;20740;-75
2022/09/27 02:41:23;;;;;;;0.60;0.50;;;10.20;99.90;;;;;;4993822;28;20291;-73
2022/09/27 02:43:54;;;;;;;3.30;2.25;;;10.20;99.90;;;;;;4993563;28;20303;-75
2022/09/27 02:46:46;;;;;;;0.80;0.70;;;10.20;99.90;;;;;;4993382;28;20291;-75
2022/09/27 02:49:26;;;;;;;0.50;0.50;;;10.20;99.90;;;;;;4993821;28;20285;-75
2022/09/27 02:52:06;;;;;;;2.97;2.88;;;10.20;99.90;;;;;;4993933;28;20281;-75
2022/09/27 02:54:40;;;;;;;0.50;0.50;;;10.20;99.90;;;;;;4992992;28;20314;-75
2022/09/27 02:57:21;;;;;;;1.10;1.05;;;10.20;99.90;;;;;;4993574;28;20187;-75
2022/09/27 03:00:00;;;;;;;1.73;1.63;;;10.20;99.90;;;;;;4993226;28;20193;-75
2022/09/27 03:02:34;;;;;;;1.50;1.40;;;10.20;99.90;;;;;;4993876;28;20245;-76
2022/09/27 03:05:04;;;;;;;4.55;1.73;;;10.20;99.90;;;;;;4992958;28;20248;-75
2022/09/27 03:07:32;;;;;;;0.50;0.40;;;10.20;99.90;;;;;;4993044;28;20753;-75
2022/09/27 03:09:58;;;;;;;3.90;3.70;;;10.20;99.90;;;;;;4993413;28;20290;-75
2022/09/27 03:12:26;;;;;;;3.03;1.95;;;10.20;99.90;;;;;;4993250;28;20200;-75
2022/09/27 03:14:54;;;;;;;0.50;0.40;;;10.20;99.90;;;;;;4992611;28;20306;-75
2022/09/27 03:17:21;;;;;;;0.50;0.40;;;10.10;99.90;;;;;;4993192;28;20295;-75
2022/09/27 03:19:49;;;;;;;1.05;1.05;;;10.00;99.90;;;;;;4993053;28;20195;-75
2022/09/27 03:22:16;;;;;;;0.50;0.40;;;10.00;99.90;;;;;;4993419;28;20317;-76
2022/09/27 03:24:43;;;;;;;0.50;0.40;;;10.00;99.90;;;;;;4992425;28;20791;-75
2022/09/27 03:27:11;;;;;;;1.13;1.13;;;10.00;99.90;;;;;;4993082;28;20769;-75
2022/09/27 03:29:38;;;;;;;0.73;0.73;;;10.00;99.90;;;;;;4992925;28;20282;-75
2022/09/27 03:32:05;;;;;;;0.70;0.60;;;9.90;99.90;;;;;;4992424;28;20657;-75
2022/09/27 03:34:32;;;;;;;5.65;0.85;;;9.90;99.90;;;;;;4992488;28;20313;-75
2022/09/27 03:37:00;;;;;;;2.33;0.98;;;9.90;99.90;;;;;;4992987;28;20306;-75
2022/09/27 03:39:27;;;;;;;1.42;0.55;;;9.90;99.90;;;;;;4992481;28;20286;-76
2022/09/27 03:41:54;;;;;;;0.50;0.40;;;10.00;99.90;;;;;;4993090;28;20234;-75
2022/09/27 03:44:21;;;;;;;0.65;0.63;;;10.00;99.90;;;;;;4992217;28;20307;-76
2022/09/27 03:46:48;;;;;;;0.70;0.70;;;9.90;99.90;;;;;;4992853;28;20286;-75
2022/09/27 03:49:15;;;;;;;0.50;0.50;;;9.90;99.90;;;;;;4992881;28;20290;-76
2022/09/27 03:51:42;;;;;;;3.08;1.25;;;9.90;99.90;;;;;;4992090;28;20297;-75
2022/09/27 03:54:10;;;;;;;1.42;1.42;;;9.80;99.90;;;;;;4992226;28;20705;-75
2022/09/27 03:56:37;;;;;;;0.50;0.40;;;9.90;99.90;;;;;;4992289;28;20305;-75
2022/09/27 03:59:04;;;;;;;0.50;0.40;;;9.80;99.90;;;;;;4992400;28;20289;-75
2022/09/27 04:01:31;;;;;;;0.50;0.40;;;9.80;99.90;;;;;;4991729;28;20298;-75
2022/09/27 04:03:58;;;;;;;0.60;0.60;;;9.70;99.90;;;;;;4992274;28;20302;-75
2022/09/27 04:06:25;;;;;;;0.50;0.40;;;9.70;99.90;;;;;;4991870;28;20250;-76
2022/09/27 04:08:52;;;;;;;0.50;0.40;;;9.60;99.90;;;;;;4992241;28;20199;-75
2022/09/27 04:11:21;;;;;;;0.50;0.50;;;9.60;99.90;;;;;;4992236;28;20248;-76
2022/09/27 04:13:48;;;;;;;0.50;0.40;;;9.60;99.90;;;;;;4992044;28;20223;-75
2022/09/27 04:16:16;;;;;;;2.80;1.23;;;9.50;99.90;;;;;;4992101;28;20304;-74
2022/09/27 04:18:42;;;;;;;0.50;0.40;;;9.60;99.90;;;;;;4991942;28;20673;-75
2022/09/27 04:21:09;;;;;;;0.93;0.73;;;9.50;99.90;;;;;;4992142;28;20234;-75
2022/09/27 04:23:36;;;;;;;0.50;0.50;;;9.60;99.90;;;;;;4992107;28;20305;-75
2022/09/27 04:26:03;;;;;;;0.50;0.40;;;9.60;99.90;;;;;;4991451;28;20194;-75
2022/09/27 04:28:32;;;;;;;0.75;0.75;;;9.60;99.90;;;;;;4983109;28;20281;-75
2022/09/27 04:30:59;;;;;;;1.00;0.90;;;9.50;99.90;;;;;;4971885;28;20259;-76
2022/09/27 04:33:26;;;;;;;0.50;0.40;;;9.50;99.90;;;;;;4972391;28;20295;-76
2022/09/27 04:38:38;;;;;;;0.50;0.40;;;9.50;99.90;;;;;;4972839;28;20292;-76
2022/09/27 04:41:06;;;;;;;2.45;1.02;;;9.50;99.90;;;;;;4972438;28;20204;-76
2022/09/27 04:43:34;;;;;;;0.50;0.40;;;9.50;99.90;;;;;;4972197;28;20708;-76
2022/09/27 04:46:01;;;;;;;1.23;1.05;;;9.50;99.90;;;;;;4971987;28;20291;-76
2022/09/27 04:48:28;;;;;;;0.60;0.60;;;9.50;99.90;;;;;;4972700;28;20282;-75
2022/09/27 04:50:59;;;;;;;1.17;0.73;;;9.50;99.90;;;;;;4972350;28;20283;-75
2022/09/27 04:53:26;;;;;;;2.45;2.25;;;9.40;99.90;;;;;;4972075;28;20725;-76
2022/09/27 04:55:54;;;;;;;0.50;0.40;;;9.40;99.90;;;;;;4971516;28;20223;-76
2022/09/27 04:58:21;;;;;;;0.95;0.70;;;9.30;99.90;;;;;;4972184;28;20205;-76
2022/09/27 05:00:51;;;;;;;1.23;1.13;;;9.30;99.90;;;;;;4972680;28;20205;-76
2022/09/27 05:03:18;;;;;;;1.20;1.00;;;9.20;99.90;;;;;;4971678;28;20298;-75
2022/09/27 05:05:45;;;;;;;0.50;0.40;;;9.30;99.90;;;;;;4972092;28;20199;-75
2022/09/27 05:08:12;;;;;;;5.47;0.93;;;9.20;99.90;;;;;;4971975;28;20292;-76
2022/09/27 05:10:39;;;;;;;0.50;0.40;;;9.20;99.90;;;;;;4972017;28;20198;-76
2022/09/27 05:13:06;;;;;;;0.50;0.40;;;9.20;99.90;;;;;;4971931;28;20292;-76
2022/09/27 05:15:34;;;;;;;1.17;1.13;;;9.20;99.90;;;;;;4975364;28;20220;-76
2022/09/27 05:18:02;;;;;;;0.50;0.40;;;9.20;99.90;;;;;;4975272;28;20210;-76
2022/09/27 05:20:29;;;;;;;0.82;0.65;;;9.20;99.90;;;;;;4975810;28;20697;-75
2022/09/27 05:22:56;;;;;;;0.50;0.50;;;9.20;99.90;;;;;;4981840;28;20627;-76
2022/09/27 05:25:23;;;;;;;0.70;0.70;;;9.20;99.90;;;;;;4988055;28;20306;-76
2022/09/27 05:27:50;;;;;;;0.50;0.40;;;9.30;99.90;;;;;;4994834;28;20715;-77
2022/09/27 05:30:17;;;;;;;0.60;0.60;;;9.20;99.90;;;;;;4994362;28;20285;-76
2022/09/27 05:32:48;;;;;;;0.50;0.50;;;9.20;99.90;;;;;;4995385;28;20294;-76
2022/09/27 05:35:18;;;;;;;1.20;0.90;;;9.10;99.90;;;;;;4994415;28;20349;-76
2022/09/27 05:37:51;;;;;;;1.83;0.93;;;9.10;99.90;;;;;;4994350;28;20801;-76
2022/09/27 05:40:17;;;;;;;0.80;0.80;;;9.00;99.90;;;;;;4994365;28;20198;-76
2022/09/27 05:42:44;;;;;;;0.50;0.40;;;9.00;99.90;;;;;;4993590;28;20769;-76
2022/09/27 05:45:11;;;;;;;4.53;2.00;;;9.00;99.90;;;;;;4993873;28;20627;-76
2022/09/27 05:47:38;;;;;;;0.50;0.40;;;9.00;99.90;;;;;;4994852;28;20621;-77
2022/09/27 05:50:08;;;;;;;0.50;0.40;;;9.00;99.90;;;;;;4994395;28;20635;-76
2022/09/27 05:52:37;;;;;;;0.50;0.40;;;9.00;99.90;;;;;;4994512;28;20205;-76
2022/09/27 05:55:04;;;;;;;0.50;0.40;;;9.00;99.90;;;;;;4993888;28;20250;-77
2022/09/27 05:57:32;;;;;;;0.50;0.40;;;9.10;99.90;;;;;;4994811;28;20215;-76
2022/09/27 05:59:59;;;;;;;0.50;0.40;;;9.20;99.90;;;;;;4994533;28;20203;-76
2022/09/27 06:02:26;;;;;;;1.25;1.15;;;9.20;99.90;;;;;;4994399;28;20287;-76
2022/09/27 06:04:54;;;;;;;0.50;0.40;;;9.30;99.90;;;;;;4994077;28;20398;-77
2022/09/27 06:07:21;;;;;;;1.23;0.85;;;9.30;99.90;;;;;;4994618;28;20223;-76
2022/09/27 06:09:49;;;;;;;0.50;0.40;;;9.30;99.90;;;;;;4994033;28;20286;-76
2022/09/27 06:12:16;;;;;;;0.50;0.40;;;9.30;99.90;;;;;;4994144;28;20241;-76
2022/09/27 06:14:43;;;;;;;1.25;1.15;;;9.30;99.90;;;;;;4994254;28;20261;-77
2022/09/27 06:17:09;;;;;;;0.50;0.40;;;9.40;99.90;;;;;;4994087;28;20302;-76
2022/09/27 06:19:36;;;;;;;0.50;0.50;;;9.40;99.90;;;;;;4994259;28;20204;-76
2022/09/27 06:22:03;;;;;;;0.50;0.40;;;9.40;99.90;;;;;;4993916;28;20280;-77
2022/09/27 06:24:30;;;;;;;0.50;0.40;;;9.30;99.90;;;;;;4993531;28;20304;-76
2022/09/27 06:26:58;;;;;;;0.50;0.40;;;9.30;99.90;;;;;;4993551;28;20284;-77
2022/09/27 06:29:26;;;;;;;0.52;0.52;;;9.30;99.90;;;;;;4993906;28;20283;-76
2022/09/27 06:31:55;;;;;;;0.70;0.70;;;9.30;99.90;;;;;;4993525;28;20215;-76
2022/09/27 06:34:22;;;;;;;2.67;0.70;;;9.30;99.90;;;;;;4993610;28;20636;-76
2022/09/27 06:36:49;;;;;;;0.50;0.40;;;9.40;99.90;;;;;;4993454;28;20804;-76
2022/09/27 06:39:16;;;;;;;0.65;0.63;;;9.30;99.90;;;;;;4993505;28;20233;-76
2022/09/27 06:41:43;;;;;;;0.50;0.50;;;9.40;99.90;;;;;;4993934;28;20239;-76
2022/09/27 06:44:12;;;;;;;1.08;0.50;;;9.30;99.90;;;;;;4993333;28;20223;-77
2022/09/27 06:46:38;;;;;;;0.50;0.40;;;9.30;99.90;;;;;;4993749;28;20289;-76
2022/09/27 06:49:06;;;;;;;2.72;2.40;;;9.30;99.90;;;;;;4980493;28;20280;-77
2022/09/27 06:51:33;;;;;;;0.50;0.40;;;9.30;99.90;;;;;;4992700;28;20222;-77
2022/09/27 06:54:00;;;;;;;0.73;0.70;;;9.30;99.90;;;;;;4981452;28;20345;-76
2022/09/27 06:56:26;;;;;;;4.60;1.05;;;9.40;99.90;;;;;;4993233;28;20305;-76
2022/09/27 07:01:39;;;;;;;0.50;0.40;;;9.50;99.90;;;;;;4993209;28;20759;-76
2022/09/27 07:04:06;;;;;;;0.50;0.50;;;9.60;99.90;;;;;;4992081;28;20254;-76
2022/09/27 07:06:34;;;;;;;1.02;0.80;;;9.60;99.90;;;;;;4993302;28;20218;-76
2022/09/27 07:09:00;;;;;;;0.70;0.70;;;9.60;99.90;;;;;;4993045;28;20206;-77
2022/09/27 07:11:27;;;;;;;1.77;0.77;;;9.60;99.90;;;;;;4992311;28;20288;-78
2022/09/27 07:13:55;;;;;;;0.50;0.45;;;9.60;99.90;;;;;;4990979;28;20230;-75
2022/09/27 07:16:22;;;;;;;0.50;0.40;;;9.70;99.90;;;;;;4993316;28;20305;-78
2022/09/27 07:18:51;;;;;;;8.23;1.95;;;9.80;99.90;;;;;;4993261;28;20235;-77
2022/09/27 07:21:18;;;;;;;2.60;2.40;;;9.80;99.90;;;;;;4993065;28;20200;-77
2022/09/27 07:23:45;;;;;;;0.50;0.50;;;9.90;99.90;;;;;;4991898;28;20634;-77
2022/09/27 07:26:12;;;;;;;0.50;0.40;;;9.90;99.90;;;;;;4992356;28;20298;-79
2022/09/27 07:28:40;;;;;;;1.08;0.70;;;9.90;99.90;;;;;;4992558;28;20279;-77
2022/09/27 07:31:07;;;;;;;0.70;0.50;;;10.00;99.90;;;;;;4992787;28;20582;-78
2022/09/27 07:33:35;;;;;;;3.17;0.60;;;10.10;99.90;;;;;;4992162;28;20627;-80
2022/09/27 07:36:08;;;;;;;0.70;0.68;;;10.20;99.90;;;;;;4991935;28;20721;-78
2022/09/27 07:38:35;;;;;;;0.80;0.77;;;10.30;99.90;;;;;;4992482;28;20272;-77
2022/09/27 07:41:06;;;;;;;0.50;0.40;;;10.40;99.90;;;;;;4992645;28;20311;-77
2022/09/27 07:43:33;;;;;;;1.35;0.70;;;10.60;99.90;;;;;;4992612;28;20663;-76
2022/09/27 07:46:00;;;;;;;0.50;0.40;;;10.60;99.90;;;;;;4992267;28;20242;-77
2022/09/27 07:48:27;;;;;;;1.02;0.88;;;10.60;99.90;;;;;;4992452;28;20291;-77
2022/09/27 07:50:54;;;;;;;0.50;0.40;;;10.70;99.90;;;;;;4992465;28;20236;-79
2022/09/27 07:53:23;;;;;;;0.90;0.68;;;10.70;99.90;;;;;;4992478;28;20629;-77
2022/09/27 07:55:51;;;;;;;0.50;0.40;;;10.80;99.90;;;;;;4991759;28;20221;-77
2022/09/27 07:58:19;;;;;;;3.72;1.15;;;10.90;99.90;;;;;;4991961;28;20223;-78
2022/09/27 08:00:46;;;;;;;0.50;0.40;;;10.90;99.90;;;;;;4992157;28;20287;-77
2022/09/27 08:03:14;;;;;;;5.70;1.98;;;11.10;99.90;;;;;;4991983;28;20290;-76
2022/09/27 08:05:42;;;;;;;0.50;0.40;;;11.10;99.90;;;;;;4991689;28;20202;-77
2022/09/27 08:08:09;;;;;;;0.50;0.40;;;11.00;99.90;;;;;;4991941;28;20288;-77
2022/09/27 08:10:43;;;;;;;0.60;0.50;;;10.90;99.90;;;;;;4992333;28;20562;-77
2022/09/27 08:13:11;;;;;;;0.50;0.40;;;10.70;99.90;;;;;;4992095;28;20222;-77
2022/09/27 08:15:38;;;;;;;0.75;0.70;;;10.60;99.90;;;;;;4991537;28;20298;-78
2022/09/27 08:18:08;;;;;;;0.95;0.63;;;10.50;99.90;;;;;;4991957;28;20215;-78
2022/09/27 08:20:35;;;;;;;0.50;0.40;;;10.60;99.90;;;;;;4992365;28;20200;-77
2022/09/27 08:23:03;;;;;;;2.47;1.67;;;10.60;99.90;;;;;;4992051;28;20314;-79
2022/09/27 08:25:30;;;;;;;0.50;0.40;;;10.70;99.90;;;;;;4991740;28;20632;-77
2022/09/27 08:27:59;;;;;;;0.80;0.77;;;11.00;99.90;;;;;;4991995;28;20293;-77
2022/09/27 08:30:28;;;;;;;0.50;0.50;;;11.60;99.90;;;;;;4991293;28;20284;-80
2022/09/27 08:32:59;;;;;;;0.50;0.40;;;11.80;99.90;;;;;;4992024;28;20188;-78
2022/09/27 08:35:27;;;;;;;2.47;0.65;;;11.80;99.90;;;;;;4991224;28;20651;-77
2022/09/27 08:37:55;;;;;;;0.50;0.40;;;11.80;99.90;;;;;;4991687;28;20259;-77
2022/09/27 08:40:26;;;;;;;1.15;1.15;;;11.70;99.90;;;;;;4991360;28;20250;-73
2022/09/27 08:43:04;;;;;;;0.93;0.83;;;11.50;99.90;;;;;;4991746;28;20710;-79
2022/09/27 08:45:36;;;;;;;0.50;0.40;;;11.50;99.90;;;;;;4990960;28;20886;-77
2022/09/27 08:48:05;;;;;;;2.15;0.80;;;11.40;99.90;;;;;;4993163;28;20323;-78
2022/09/27 08:50:35;;;;;;;0.50;0.40;;;11.40;99.90;;;;;;4995267;28;20291;-78
2022/09/27 08:53:07;;;;;;;0.75;0.75;;;11.30;99.90;;;;;;4995360;28;20294;-79
2022/09/27 08:55:38;;;;;;;0.65;0.57;;;11.20;99.90;;;;;;4995039;28;20227;-78
2022/09/27 08:58:13;;;;;;;0.60;0.60;;;11.10;99.90;;;;;;4995518;28;20234;-77
2022/09/27 09:00:41;;;;;;;0.52;0.52;;;11.00;99.90;;;;;;4995601;28;20587;-77
2022/09/27 09:03:18;;;;;;;0.60;0.50;;;10.90;99.90;;;;;;4995339;28;20207;-77
2022/09/27 09:05:51;;;;;;;0.50;0.40;;;10.90;99.90;;;;;;4995596;28;20291;-77
2022/09/27 09:08:33;;;;;;;0.80;0.55;;;10.70;99.90;;;;;;4995559;28;20194;-77
2022/09/27 09:14:18;;;;;;;1.00;0.90;;;10.60;99.90;;;;;;4994685;28;20300;-74
2022/09/27 09:16:53;;;;;;;0.70;0.70;;;10.60;99.90;;;;;;4995439;28;20283;-77
2022/09/27 09:19:43;;;;;;;0.50;0.40;;;10.50;99.90;;;;;;4995315;28;20270;-78
2022/09/27 09:22:27;;;;;;;0.50;0.40;;;10.50;99.90;;;;;;4994811;28;20239;-78
2022/09/27 09:25:06;;;;;;;0.50;0.40;;;10.50;99.90;;;;;;4995120;28;20219;-77
2022/09/27 09:27:41;;;;;;;0.90;0.90;;;10.50;99.90;;;;;;4994832;28;20629;-77
2022/09/27 09:30:23;;;;;;;0.52;0.45;;;10.50;99.90;;;;;;4995008;28;20276;-79
2022/09/27 09:33:15;;;;;;;0.50;0.40;;;10.50;99.90;;;;;;4994691;28;20192;-79
2022/09/27 09:35:47;;;;;;;0.50;0.40;;;10.60;99.90;;;;;;4985325;28;20468;-77
2022/09/27 09:38:21;;;;;;;0.50;0.40;;;10.50;99.90;;;;;;4994571;28;20737;-78
2022/09/27 09:40:53;;;;;;;0.50;0.40;;;10.60;99.90;;;;;;4994062;28;20654;-77
2022/09/27 09:43:25;;;;;;;0.95;0.95;;;10.70;99.90;;;;;;4994423;28;20285;-77
2022/09/27 09:45:58;;;;;;;2.35;1.08;;;10.70;99.90;;;;;;4994227;28;20223;-77
2022/09/27 09:48:32;;;;;;;0.52;0.43;;;10.60;99.90;;;;;;4994108;28;20195;-78
2022/09/27 09:51:01;;;;;;;0.65;0.50;;;10.50;99.90;;;;;;4994132;28;20291;-77
2022/09/27 09:53:38;;;;;;;0.63;0.63;;;10.50;99.90;;;;;;4993957;28;20249;-78
2022/09/27 09:56:07;;;;;;;0.93;0.70;;;10.40;99.90;;;;;;4993832;28;20179;-75
2022/09/27 09:58:40;;;;;;;0.55;0.52;;;10.30;99.90;;;;;;4994393;28;20658;-78
2022/09/27 10:01:17;;;;;;;0.95;0.95;;;10.40;99.90;;;;;;4993596;28;20180;-78
2022/09/27 10:03:44;;;;;;;0.50;0.40;;;10.40;99.90;;;;;;4994295;28;20415;-78
2022/09/27 10:06:13;;;;;;;0.70;0.65;;;10.30;99.90;;;;;;4993895;28;20229;-78
2022/09/27 10:08:40;;;;;;;0.82;0.80;;;10.30;99.90;;;;;;4994162;28;20226;-77
2022/09/27 10:11:12;;;;;;;1.60;1.27;;;10.30;99.90;;;;;;4994079;28;20199;-78
2022/09/27 10:13:39;;;;;;;0.55;0.52;;;10.30;99.90;;;;;;4993692;28;20305;-78
2022/09/27 10:16:08;;;;;;;2.80;1.10;;;10.30;99.90;;;;;;4993149;28;20231;-78
2022/09/27 10:18:40;;;;;;;1.88;1.10;;;10.50;99.90;;;;;;4993558;28;20769;-79
2022/09/27 10:21:11;;;;;;;0.50;0.40;;;10.40;99.90;;;;;;4993692;28;20250;-77
2022/09/27 10:24:03;;;;;;;0.63;0.63;;;10.50;99.90;;;;;;4993601;28;20774;-77
2022/09/27 10:26:30;;;;;;;1.77;1.67;;;10.60;99.90;;;;;;4993436;28;20200;-78
2022/09/27 10:28:57;;;;;;;4.63;2.60;;;10.70;99.90;;;;;;4993544;28;20284;-77
2022/09/27 10:31:24;;;;;;;0.50;0.40;;;10.80;99.90;;;;;;4992933;28;20246;-76
2022/09/27 10:33:56;;;;;;;0.95;0.85;;;11.00;99.90;;;;;;4993208;28;20757;-76
2022/09/27 10:36:25;;;;;;;0.70;0.70;;;11.20;99.90;;;;;;4993892;28;20193;-77
2022/09/27 10:38:54;;;;;;;1.10;1.00;;;11.60;99.90;;;;;;4993178;28;20319;-77
2022/09/27 10:41:25;;;;;;;0.98;0.85;;;11.90;99.90;;;;;;4993562;28;20260;-77
2022/09/27 10:43:52;;;;;;;0.50;0.50;;;12.20;99.90;;;;;;4993164;28;20217;-76
2022/09/27 10:46:26;;;;;;;0.90;0.80;;;12.30;99.90;;;;;;4993377;28;20570;-78
2022/09/27 10:51:52;;;;;;;0.70;0.70;;;12.50;99.90;;;;;;5129252;27;20499;-77
2022/09/27 10:54:26;;;;;;;0.50;0.50;;;12.80;99.90;;;;;;5119449;27;20235;-77
2022/09/27 10:57:03;;;;;;;0.60;0.50;;;12.90;99.90;;;;;;5108796;28;20222;-77
2022/09/27 10:59:33;;;;;;;0.60;0.50;;;12.90;99.90;;;;;;5108798;28;20200;-77
2022/09/27 11:02:01;;;;;;;0.50;0.40;;;12.90;99.90;;;;;;5108847;28;20849;-78
2022/09/27 11:04:31;;;;;;;0.50;0.40;;;12.80;99.90;;;;;;5108372;28;20546;-76
2022/09/27 11:07:13;;;;;;;0.85;0.80;;;12.80;99.90;;;;;;5108505;28;20442;-78
2022/09/27 11:09:49;;;;;;;0.90;0.90;;;12.60;99.90;;;;;;5108831;28;20200;-77
2022/09/27 11:12:19;;;;;;;1.00;0.60;;;12.40;99.90;;;;;;5108930;28;20215;-77
2022/09/27 11:14:53;;;;;;;0.53;0.50;;;12.60;99.90;;;;;;5108713;28;20459;-77
2022/09/27 11:17:28;;;;;;;0.50;0.40;;;12.40;99.90;;;;;;5108201;28;20470;-73
2022/09/27 11:20:25;;;;;;;0.60;0.50;;;12.50;99.90;;;;;;5108613;28;20497;-77
2022/09/27 11:23:30;;;;;;;1.90;1.70;;;12.40;99.90;;;;;;5107802;28;20390;-78
2022/09/27 11:26:15;;;;;;;0.60;0.60;;;12.20;99.90;;;;;;5108144;28;20228;-78
2022/09/27 11:28:56;;;;;;;1.45;0.90;;;12.20;99.90;;;;;;5108556;28;20223;-78
2022/09/27 11:31:31;;;;;;;1.00;0.90;;;12.10;99.90;;;;;;5107998;28;20201;-78
2022/09/27 11:34:12;;;;;;;0.50;0.40;;;12.20;99.90;;;;;;5108062;28;20251;-78
2022/09/27 11:36:55;;;;;;;0.70;0.60;;;12.40;99.90;;;;;;5108550;28;20633;-78
2022/09/27 11:39:33;;;;;;;1.08;0.98;;;12.50;99.90;;;;;;5108154;28;20200;-76
2022/09/27 11:42:17;;;;;;;0.60;0.57;;;12.50;99.90;;;;;;5108211;28;20267;-78
2022/09/27 11:44:59;;;;;;;0.50;0.40;;;12.80;99.90;;;;;;5107737;28;20533;-77
2022/09/27 11:47:35;;;;;;;0.50;0.40;;;13.30;99.90;;;;;;5108015;28;20457;-78
2022/09/27 11:50:33;;;;;;;0.50;0.37;;;13.80;99.90;;;;;;5107860;28;20557;-78
2022/09/27 11:53:21;;;;;;;0.60;0.60;;;14.10;99.90;;;;;;5107890;28;20473;-78
2022/09/27 11:56:00;;;;;;;1.13;0.70;;;14.20;99.90;;;;;;5108076;28;20462;-78
2022/09/27 11:58:37;;;;;;;1.43;1.33;;;14.30;99.90;;;;;;5107573;28;20446;-77
2022/09/27 12:01:16;;;;;;;1.07;1.07;;;14.30;99.90;;;;;;5106178;28;20423;-77
2022/09/27 12:04:17;;;;;;;0.50;0.40;;;14.10;99.90;;;;;;5093560;28;20542;-76
2022/09/27 12:06:54;;;;;;;0.50;0.40;;;13.60;99.90;;;;;;5084895;28;20452;-77
2022/09/27 12:09:26;;;;;;;0.70;0.50;;;13.10;99.90;;;;;;5094398;28;20419;-77
2022/09/27 12:11:58;;;;;;;0.80;0.80;;;12.70;99.90;;;;;;5093954;28;20471;-78
2022/09/27 12:14:30;;;;;;;0.73;0.73;;;12.40;99.90;;;;;;5093218;28;21014;-77
2022/09/27 12:16:57;;;;;;;0.50;0.40;;;12.00;99.90;;;;;;5093930;28;20426;-77
2022/09/27 12:19:27;;;;;;;0.80;0.80;;;11.80;99.90;;;;;;5093975;28;20558;-73
2022/09/27 12:21:57;;;;;;;0.85;0.82;;;11.60;99.90;;;;;;5093570;28;20197;-77
2022/09/27 12:24:25;;;;;;;0.60;0.60;;;11.40;99.90;;;;;;5093195;28;20217;-76
2022/09/27 12:26:57;;;;;;;0.88;0.88;;;11.30;99.90;;;;;;5093770;28;20198;-76
2022/09/27 12:29:28;;;;;;;0.50;0.40;;;11.10;99.90;;;;;;5094080;28;20185;-75
2022/09/27 12:32:04;;;;;;;0.80;0.52;;;11.00;99.90;;;;;;5093002;28;20701;-77
2022/09/27 12:34:39;;;;;;;1.13;1.02;;;10.90;99.90;;;;;;5093253;28;20725;-77
2022/09/27 12:37:12;;;;;;;1.05;0.77;;;10.90;99.90;;;;;;5093455;28;20189;-77
2022/09/27 12:39:47;;;;;;;0.50;0.40;;;10.90;99.90;;;;;;5094255;28;20185;-77
2022/09/27 12:42:20;;;;;;;0.50;0.40;;;10.80;99.90;;;;;;5093591;28;20447;-77
2022/09/27 12:44:47;;;;;;;0.60;0.60;;;10.80;99.90;;;;;;5093141;28;20582;-77
2022/09/27 12:47:34;;;;;;;1.63;1.52;;;10.90;99.90;;;;;;5093429;28;20268;-77
2022/09/27 12:50:10;;;;;;;0.50;0.40;;;11.00;99.90;;;;;;5084224;28;20690;-78
2022/09/27 12:52:43;;;;;;;3.60;1.38;;;11.10;99.90;;;;;;5092962;28;20223;-76
2022/09/27 12:55:51;;;;;;;0.93;0.93;;;11.20;99.90;;;;;;5092833;28;20225;-77
2022/09/27 12:58:40;;;;;;;0.50;0.40;;;11.40;99.90;;;;;;5092647;28;20204;-80
2022/09/27 13:01:19;;;;;;;0.60;0.50;;;11.50;99.90;;;;;;5092594;28;20199;-76
2022/09/27 13:04:09;;;;;;;0.50;0.40;;;11.50;99.90;;;;;;5092736;28;20217;-79
2022/09/27 13:06:55;;;;;;;2.38;2.17;;;11.60;99.90;;;;;;5093096;28;20269;-77
2022/09/27 13:09:50;;;;;;;0.70;0.40;;;11.80;99.90;;;;;;5094309;28;20260;-75
2022/09/27 13:12:19;;;;;;;0.50;0.40;;;12.00;99.90;;;;;;5093328;28;20200;-74
2022/09/27 13:14:57;;;;;;;0.77;0.55;;;12.00;99.90;;;;;;5091224;28;20227;-75
2022/09/27 13:17:53;;;;;;;0.50;0.40;;;12.00;99.90;;;;;;5092367;28;20665;-75
2022/09/27 13:20:47;;;;;;;0.60;0.43;;;12.00;99.90;;;;;;5092366;28;20551;-75
2022/09/27 13:24:02;;;;;;;0.70;0.60;;;11.90;99.90;;;;;;5092843;28;20185;-76
2022/09/27 13:26:49;;;;;;;0.50;0.47;;;11.90;99.90;;;;;;5092389;28;20258;-75